createdAt,value
2022-10-02T00:03:37.245Z,2.00
2022-10-02T00:07:44.108Z,1.90
2022-10-02T00:11:49.380Z,1.58
2022-10-02T00:15:52.194Z,1.50
2022-10-02T00:19:55.426Z,1.98
2022-10-02T00:23:59.745Z,1.70
2022-10-02T00:28:12.729Z,1.45
2022-10-02T00:32:31.134Z,1.80
2022-10-02T00:36:52.049Z,1.73
2022-10-02T00:40:56.482Z,1.80
2022-10-02T00:45:16.994Z,1.73
2022-10-02T00:49:33.623Z,1.38
2022-10-02T00:53:47.071Z,1.77
2022-10-02T00:58:13.793Z,1.90
2022-10-02T01:02:54.259Z,1.45
2022-10-02T01:06:56.379Z,1.42
2022-10-02T01:10:59.102Z,1.67
2022-10-02T01:15:00.707Z,1.90
2022-10-02T01:19:02.416Z,1.55
2022-10-02T01:23:15.247Z,1.65
2022-10-02T01:27:17.287Z,1.33
2022-10-02T01:31:19.302Z,1.48
2022-10-02T01:35:24.828Z,1.55
2022-10-02T01:39:27.111Z,1.60
2022-10-02T01:43:35.656Z,1.67
2022-10-02T01:48:00.035Z,1.40
2022-10-02T01:52:26.234Z,1.67
2022-10-02T01:56:42.646Z,1.40
2022-10-02T02:05:25.485Z,1.50
2022-10-02T02:09:45.296Z,1.30
2022-10-02T02:14:09.845Z,1.42
2022-10-02T02:18:53.842Z,1.45
2022-10-02T02:23:01.535Z,1.73
2022-10-02T02:27:05.306Z,1.55
2022-10-02T02:31:11.480Z,1.67
2022-10-02T02:35:19.128Z,1.15
2022-10-02T02:39:29.778Z,1.50
2022-10-02T02:43:44.343Z,1.50
2022-10-02T02:48:09.344Z,1.42
2022-10-02T02:52:17.643Z,1.40
2022-10-02T02:56:21.690Z,1.45
2022-10-02T03:00:25.626Z,1.13
2022-10-02T03:04:27.486Z,1.50
2022-10-02T03:08:34.202Z,1.45
2022-10-02T03:12:49.197Z,1.00
2022-10-02T03:17:09.473Z,1.48
2022-10-02T03:21:21.152Z,1.63
2022-10-02T03:25:31.946Z,1.23
2022-10-02T03:29:45.289Z,1.48
2022-10-02T03:33:50.159Z,1.52
2022-10-02T03:37:56.089Z,1.30
2022-10-02T03:41:57.846Z,1.65
2022-10-02T03:45:59.478Z,1.50
2022-10-02T03:50:01.106Z,1.38
2022-10-02T03:54:03.389Z,1.42
2022-10-02T03:58:14.681Z,1.70
2022-10-02T04:02:25.681Z,1.40
2022-10-02T04:06:52.026Z,1.27
2022-10-02T04:11:09.491Z,1.10
2022-10-02T04:15:25.659Z,1.60
2022-10-02T04:19:40.964Z,1.17
2022-10-02T04:24:06.931Z,1.63
2022-10-02T04:28:15.266Z,1.63
2022-10-02T04:32:22.515Z,1.33
2022-10-02T04:36:45.844Z,1.20
2022-10-02T04:46:09.768Z,1.50
2022-10-02T04:50:33.918Z,1.25
2022-10-02T04:55:23.092Z,1.48
2022-10-02T04:59:43.161Z,1.05
2022-10-02T05:04:00.744Z,0.90
2022-10-02T05:08:26.059Z,1.50
2022-10-02T05:12:45.730Z,1.30
2022-10-02T05:17:08.512Z,1.17
2022-10-02T05:21:39.049Z,1.30
2022-10-02T05:25:50.483Z,1.30
2022-10-02T05:29:57.797Z,1.52
2022-10-02T05:34:11.958Z,1.20
2022-10-02T05:38:13.599Z,1.35
2022-10-02T05:42:42.908Z,1.30
2022-10-02T05:47:01.569Z,1.27
2022-10-02T05:51:08.997Z,1.40
2022-10-02T05:55:44.757Z,1.42
2022-10-02T06:00:04.259Z,1.30
2022-10-02T06:04:16.619Z,1.05
2022-10-02T06:08:22.146Z,1.15
2022-10-02T06:12:31.174Z,1.25
2022-10-02T06:17:13.309Z,1.30
2022-10-02T06:21:31.728Z,1.20
2022-10-02T06:25:38.427Z,1.27
2022-10-02T06:29:45.606Z,0.93
2022-10-02T06:33:47.748Z,1.17
2022-10-02T06:38:26.928Z,1.27
2022-10-02T06:42:47.222Z,1.40
2022-10-02T06:47:13.981Z,1.45
2022-10-02T06:51:20.385Z,1.08
2022-10-02T06:55:54.448Z,0.88
2022-10-02T07:00:18.545Z,1.02
2022-10-02T07:04:42.133Z,1.02
2022-10-02T07:09:22.619Z,1.20
2022-10-02T07:14:07.064Z,1.60
2022-10-02T07:18:33.267Z,0.93
2022-10-02T07:23:01.885Z,1.15
2022-10-02T07:27:23.355Z,1.27
2022-10-02T07:32:02.316Z,1.20
2022-10-02T07:36:23.382Z,1.10
2022-10-02T07:40:36.320Z,0.80
2022-10-02T07:45:03.643Z,1.15
2022-10-02T07:49:20.662Z,0.95
2022-10-02T07:53:39.035Z,0.95
2022-10-02T07:58:10.108Z,1.08
2022-10-02T08:02:49.017Z,0.90
2022-10-02T08:06:57.136Z,1.33
2022-10-02T08:11:34.776Z,0.80
2022-10-02T08:15:38.680Z,0.80
2022-10-02T08:19:50.588Z,0.82
2022-10-02T08:24:07.356Z,1.02
2022-10-02T08:28:22.358Z,0.95
2022-10-02T08:32:33.920Z,1.20
2022-10-02T08:36:56.342Z,1.13
2022-10-02T08:41:27.915Z,1.25
2022-10-02T08:45:54.495Z,0.73
2022-10-02T08:54:15.466Z,0.77
2022-10-02T08:58:27.314Z,0.88
2022-10-02T09:02:52.650Z,0.85
2022-10-02T09:06:57.056Z,0.80
2022-10-02T09:11:26.381Z,0.80
2022-10-02T09:15:59.168Z,0.75
2022-10-02T09:20:19.428Z,0.93
2022-10-02T09:24:59.325Z,0.95
2022-10-02T09:29:22.833Z,0.98
2022-10-02T09:33:42.549Z,0.80
2022-10-02T09:37:52.968Z,0.95
2022-10-02T09:42:11.005Z,1.00
2022-10-02T09:46:46.686Z,0.77
2022-10-02T09:51:26.595Z,0.95
2022-10-02T09:55:37.367Z,0.80
2022-10-02T09:59:58.615Z,0.88
2022-10-02T10:04:22.234Z,0.95
2022-10-02T10:08:45.448Z,0.90
2022-10-02T10:13:20.934Z,0.70
2022-10-02T10:17:42.925Z,0.88
2022-10-02T10:22:19.175Z,1.08
2022-10-02T10:26:55.957Z,0.73
2022-10-02T10:31:06.496Z,0.77
2022-10-02T10:35:24.481Z,0.93
2022-10-02T10:39:42.786Z,1.23
2022-10-02T10:44:14.770Z,0.70
2022-10-02T10:48:49.371Z,0.70
2022-10-02T10:53:06.791Z,0.70
2022-10-02T10:57:13.266Z,0.60
2022-10-02T11:01:42.978Z,0.75
2022-10-02T11:11:19.679Z,0.80
2022-10-02T11:15:56.877Z,0.83
2022-10-02T11:20:19.459Z,0.57
2022-10-02T11:24:56.584Z,0.70
2022-10-02T11:29:22.794Z,0.70
2022-10-02T11:33:40.343Z,0.85
2022-10-02T11:38:19.460Z,0.82
2022-10-02T11:42:52.912Z,0.60
2022-10-02T11:47:03.988Z,0.70
2022-10-02T11:51:24.495Z,1.20
2022-10-02T11:56:22.156Z,0.50
2022-10-02T12:00:59.714Z,0.50
2022-10-02T12:05:30.586Z,0.80
2022-10-02T12:09:56.371Z,0.80
2022-10-02T12:14:30.491Z,0.50
2022-10-02T12:18:36.205Z,0.50
2022-10-02T12:23:24.846Z,0.77
2022-10-02T12:27:51.126Z,0.82
2022-10-02T12:32:07.961Z,0.40
2022-10-02T12:36:38.471Z,0.57
2022-10-02T12:40:45.989Z,0.60
2022-10-02T12:45:00.111Z,0.60
2022-10-02T12:50:05.040Z,0.50
2022-10-02T12:54:44.548Z,0.70
2022-10-02T12:59:19.818Z,0.60
2022-10-02T13:03:42.653Z,0.70
2022-10-02T13:08:09.327Z,0.77
2022-10-02T13:12:43.546Z,0.60
2022-10-02T13:16:46.438Z,0.80
2022-10-02T13:21:09.795Z,0.43
2022-10-02T13:25:22.491Z,0.40
2022-10-02T13:29:57.709Z,0.47
2022-10-02T13:34:24.908Z,0.50
2022-10-02T13:38:43.731Z,0.57
2022-10-02T13:43:06.793Z,0.63
2022-10-02T13:47:14.447Z,0.63
2022-10-02T13:51:27.810Z,0.60
2022-10-02T13:55:34.562Z,0.50
2022-10-02T13:59:55.292Z,0.60
2022-10-02T14:04:06.214Z,0.52
2022-10-02T14:08:41.272Z,0.52
2022-10-02T14:13:17.356Z,0.57
2022-10-02T14:17:35.791Z,0.57
2022-10-02T14:21:48.738Z,0.75
2022-10-02T14:26:12.702Z,0.40
2022-10-02T14:30:19.268Z,0.90
2022-10-02T14:34:33.117Z,1.08
2022-10-02T14:38:45.248Z,0.60
2022-10-02T14:43:08.207Z,0.50
2022-10-02T14:47:15.692Z,0.68
2022-10-02T14:51:41.926Z,0.80
2022-10-02T14:55:49.645Z,0.70
2022-10-02T15:00:13.735Z,0.40
2022-10-02T15:04:30.069Z,0.80
2022-10-02T15:18:21.223Z,0.60
2022-10-02T15:22:31.641Z,0.73
2022-10-02T15:26:52.262Z,0.90
2022-10-02T15:31:05.483Z,0.60
2022-10-02T15:35:47.999Z,0.68
2022-10-02T15:40:05.461Z,0.90
2022-10-02T15:49:07.646Z,0.60
2022-10-02T15:53:35.309Z,0.70
2022-10-02T15:57:59.201Z,0.75
2022-10-02T16:02:06.732Z,0.60
2022-10-02T16:06:39.497Z,0.60
2022-10-02T16:11:16.480Z,0.90
2022-10-02T16:15:27.096Z,0.40
2022-10-02T16:19:56.329Z,0.50
2022-10-02T16:24:26.305Z,0.65
2022-10-02T16:28:36.631Z,0.55
2022-10-02T16:33:11.697Z,0.70
2022-10-02T16:37:44.941Z,0.70
2022-10-02T16:42:40.063Z,0.50
2022-10-02T16:47:04.908Z,0.80
2022-10-02T16:51:08.445Z,0.63
2022-10-02T16:55:33.699Z,0.60
2022-10-02T16:59:47.090Z,0.47
2022-10-02T17:03:56.502Z,0.40
2022-10-02T17:07:58.870Z,0.50
2022-10-02T17:12:30.172Z,0.90
2022-10-02T17:16:56.224Z,0.50
2022-10-02T17:21:08.106Z,0.57
2022-10-02T17:25:35.253Z,0.70
2022-10-02T17:29:40.603Z,0.75
2022-10-02T17:34:24.858Z,0.70
2022-10-02T17:38:50.398Z,0.80
2022-10-02T17:43:17.468Z,0.57
2022-10-02T17:47:28.129Z,0.63
2022-10-02T17:51:53.394Z,0.60
2022-10-02T17:56:39.910Z,0.82
2022-10-02T18:01:00.523Z,0.70
2022-10-02T18:05:22.272Z,0.90
2022-10-02T18:09:42.220Z,0.93
2022-10-02T18:13:56.071Z,1.10
2022-10-02T18:18:22.344Z,0.75
2022-10-02T18:22:38.818Z,1.05
2022-10-02T18:26:43.459Z,0.57
2022-10-02T18:31:14.793Z,1.30
2022-10-02T18:35:43.138Z,0.90
2022-10-02T18:40:06.893Z,0.70
2022-10-02T18:44:21.927Z,1.08
2022-10-02T18:48:46.012Z,0.90
2022-10-02T18:53:06.223Z,0.80
2022-10-02T18:57:07.776Z,0.85
2022-10-02T19:01:28.054Z,1.20
2022-10-02T19:05:33.312Z,0.73
2022-10-02T19:09:34.973Z,0.73
2022-10-02T19:13:41.025Z,0.88
2022-10-02T19:22:01.491Z,0.77
2022-10-02T19:26:07.776Z,0.77
2022-10-02T19:30:31.726Z,1.48
2022-10-02T19:34:34.528Z,1.05
2022-10-02T19:38:38.921Z,0.98
2022-10-02T19:42:48.590Z,0.98
2022-10-02T19:46:56.572Z,0.85
2022-10-02T19:51:08.342Z,0.80
2022-10-02T19:55:22.688Z,0.90
2022-10-02T19:59:29.810Z,1.55
2022-10-02T20:03:32.941Z,0.80
2022-10-02T20:07:37.972Z,0.60
2022-10-02T20:11:50.113Z,0.77
2022-10-02T20:16:18.076Z,0.80
2022-10-02T20:20:20.625Z,0.93
2022-10-02T20:24:40.054Z,0.90
2022-10-02T20:28:49.855Z,0.75
2022-10-02T20:33:06.477Z,1.00
2022-10-02T20:37:29.366Z,0.90
2022-10-02T20:41:40.276Z,1.00
2022-10-02T20:46:03.194Z,1.15
2022-10-02T20:50:13.948Z,0.70
2022-10-02T20:54:40.851Z,0.65
2022-10-02T20:59:15.773Z,1.00
2022-10-02T21:03:35.934Z,1.05
2022-10-02T21:08:11.388Z,0.57
2022-10-02T21:12:25.147Z,0.70
2022-10-02T21:16:56.503Z,0.60
2022-10-02T21:21:10.013Z,1.05
2022-10-02T21:25:44.306Z,0.85
2022-10-02T21:30:34.094Z,1.10
2022-10-02T21:35:03.338Z,1.42
2022-10-02T21:39:50.485Z,0.82
2022-10-02T21:48:43.701Z,0.95
2022-10-02T21:53:23.410Z,0.77
2022-10-02T21:57:40.571Z,1.10
2022-10-02T22:02:07.745Z,0.90
2022-10-02T22:06:36.418Z,0.70
2022-10-02T22:10:47.429Z,0.95
2022-10-02T22:15:06.216Z,1.02
2022-10-02T22:19:20.453Z,1.10
2022-10-02T22:23:43.182Z,0.75
2022-10-02T22:27:54.418Z,0.68
2022-10-02T22:32:30.348Z,0.70
2022-10-02T22:36:51.970Z,1.20
2022-10-02T22:40:58.809Z,0.85
2022-10-02T22:45:04.835Z,0.90
2022-10-02T22:53:35.456Z,0.90
2022-10-02T22:58:02.797Z,0.60
2022-10-02T23:02:14.702Z,1.38
2022-10-02T23:06:18.119Z,1.20
2022-10-02T23:10:40.952Z,0.70
2022-10-02T23:15:05.873Z,1.27
2022-10-02T23:19:37.345Z,0.68
2022-10-02T23:24:04.229Z,0.82
2022-10-02T23:28:12.057Z,0.70
2022-10-02T23:32:27.213Z,0.50
2022-10-02T23:36:44.356Z,0.80
2022-10-02T23:41:25.846Z,0.60
2022-10-02T23:45:35.979Z,0.85
2022-10-02T23:49:44.761Z,0.60
2022-10-02T23:54:06.613Z,0.77
2022-10-02T23:58:46.631Z,0.80
